sensor_id;sensor_type;location;lat;lon;timestamp;P1;durP1;ratioP1;P2;durP2;ratioP2
19828;SDS011;10075;50.924;4.396;2023-08-31T00:02:24;4.22;;;2.75;;
19828;SDS011;10075;50.924;4.396;2023-08-31T00:04:51;6.05;;;2.60;;
19828;SDS011;10075;50.924;4.396;2023-08-31T00:07:19;3.55;;;2.70;;
19828;SDS011;10075;50.924;4.396;2023-08-31T00:09:47;4.95;;;2.88;;
19828;SDS011;10075;50.924;4.396;2023-08-31T00:12:14;5.03;;;2.95;;
19828;SDS011;10075;50.924;4.396;2023-08-31T00:14:41;6.07;;;3.03;;
19828;SDS011;10075;50.924;4.396;2023-08-31T00:17:09;5.00;;;2.88;;
19828;SDS011;10075;50.924;4.396;2023-08-31T00:19:36;6.72;;;3.13;;
19828;SDS011;10075;50.924;4.396;2023-08-31T00:22:03;6.20;;;3.10;;
19828;SDS011;10075;50.924;4.396;2023-08-31T00:24:30;5.63;;;3.33;;
19828;SDS011;10075;50.924;4.396;2023-08-31T00:27:01;6.47;;;3.10;;
19828;SDS011;10075;50.924;4.396;2023-08-31T00:29:28;5.05;;;3.50;;
19828;SDS011;10075;50.924;4.396;2023-08-31T00:31:55;6.28;;;3.83;;
19828;SDS011;10075;50.924;4.396;2023-08-31T00:34:24;6.15;;;3.25;;
19828;SDS011;10075;50.924;4.396;2023-08-31T00:36:51;5.85;;;3.67;;
19828;SDS011;10075;50.924;4.396;2023-08-31T00:39:17;8.20;;;4.00;;
19828;SDS011;10075;50.924;4.396;2023-08-31T00:41:46;6.30;;;4.40;;
19828;SDS011;10075;50.924;4.396;2023-08-31T00:44:13;6.35;;;3.70;;
19828;SDS011;10075;50.924;4.396;2023-08-31T00:46:40;6.95;;;3.92;;
19828;SDS011;10075;50.924;4.396;2023-08-31T00:49:07;6.70;;;4.13;;
19828;SDS011;10075;50.924;4.396;2023-08-31T00:51:36;7.18;;;4.47;;
19828;SDS011;10075;50.924;4.396;2023-08-31T00:54:04;8.85;;;4.93;;
19828;SDS011;10075;50.924;4.396;2023-08-31T00:56:31;6.28;;;4.13;;
19828;SDS011;10075;50.924;4.396;2023-08-31T00:58:58;6.85;;;4.25;;
19828;SDS011;10075;50.924;4.396;2023-08-31T01:01:26;6.32;;;4.38;;
19828;SDS011;10075;50.924;4.396;2023-08-31T01:04:03;8.73;;;4.70;;
19828;SDS011;10075;50.924;4.396;2023-08-31T01:06:41;6.28;;;4.40;;
19828;SDS011;10075;50.924;4.396;2023-08-31T01:09:17;12.13;;;4.75;;
19828;SDS011;10075;50.924;4.396;2023-08-31T01:11:55;8.60;;;4.72;;
19828;SDS011;10075;50.924;4.396;2023-08-31T01:14:27;9.57;;;4.63;;
19828;SDS011;10075;50.924;4.396;2023-08-31T01:16:59;9.02;;;4.97;;
19828;SDS011;10075;50.924;4.396;2023-08-31T01:19:35;9.52;;;5.57;;
19828;SDS011;10075;50.924;4.396;2023-08-31T01:22:13;9.50;;;4.75;;
19828;SDS011;10075;50.924;4.396;2023-08-31T01:24:48;9.75;;;5.13;;
19828;SDS011;10075;50.924;4.396;2023-08-31T01:27:16;7.70;;;5.00;;
19828;SDS011;10075;50.924;4.396;2023-08-31T01:29:43;8.88;;;5.38;;
19828;SDS011;10075;50.924;4.396;2023-08-31T01:32:10;8.23;;;5.00;;
19828;SDS011;10075;50.924;4.396;2023-08-31T01:34:37;9.43;;;5.70;;
19828;SDS011;10075;50.924;4.396;2023-08-31T01:39:52;8.85;;;5.82;;
19828;SDS011;10075;50.924;4.396;2023-08-31T01:42:23;15.80;;;6.90;;
19828;SDS011;10075;50.924;4.396;2023-08-31T01:44:52;8.45;;;6.20;;
19828;SDS011;10075;50.924;4.396;2023-08-31T01:47:21;11.10;;;6.82;;
19828;SDS011;10075;50.924;4.396;2023-08-31T01:49:49;10.02;;;5.88;;
19828;SDS011;10075;50.924;4.396;2023-08-31T01:52:17;7.68;;;5.45;;
19828;SDS011;10075;50.924;4.396;2023-08-31T01:54:44;11.32;;;6.10;;
19828;SDS011;10075;50.924;4.396;2023-08-31T01:57:13;8.20;;;5.80;;
19828;SDS011;10075;50.924;4.396;2023-08-31T01:59:40;8.48;;;6.57;;
19828;SDS011;10075;50.924;4.396;2023-08-31T02:02:07;11.80;;;6.20;;
19828;SDS011;10075;50.924;4.396;2023-08-31T02:04:33;9.65;;;6.47;;
19828;SDS011;10075;50.924;4.396;2023-08-31T02:07:00;11.65;;;6.50;;
19828;SDS011;10075;50.924;4.396;2023-08-31T02:09:28;10.98;;;6.20;;
19828;SDS011;10075;50.924;4.396;2023-08-31T02:11:54;10.32;;;6.63;;
19828;SDS011;10075;50.924;4.396;2023-08-31T02:14:23;11.43;;;6.80;;
19828;SDS011;10075;50.924;4.396;2023-08-31T02:16:50;10.77;;;6.60;;
19828;SDS011;10075;50.924;4.396;2023-08-31T02:19:17;11.20;;;7.05;;
19828;SDS011;10075;50.924;4.396;2023-08-31T02:21:44;12.10;;;7.25;;
19828;SDS011;10075;50.924;4.396;2023-08-31T02:24:10;16.30;;;7.43;;
19828;SDS011;10075;50.924;4.396;2023-08-31T02:26:37;11.98;;;7.30;;
19828;SDS011;10075;50.924;4.396;2023-08-31T02:29:04;11.97;;;7.27;;
19828;SDS011;10075;50.924;4.396;2023-08-31T02:31:33;12.48;;;7.55;;
19828;SDS011;10075;50.924;4.396;2023-08-31T02:33:59;12.27;;;7.38;;
19828;SDS011;10075;50.924;4.396;2023-08-31T02:36:26;10.15;;;6.95;;
19828;SDS011;10075;50.924;4.396;2023-08-31T02:38:53;12.20;;;7.70;;
19828;SDS011;10075;50.924;4.396;2023-08-31T02:41:20;9.88;;;7.20;;
19828;SDS011;10075;50.924;4.396;2023-08-31T02:43:49;10.55;;;6.57;;
19828;SDS011;10075;50.924;4.396;2023-08-31T02:46:16;10.00;;;6.83;;
19828;SDS011;10075;50.924;4.396;2023-08-31T02:48:45;9.05;;;6.13;;
19828;SDS011;10075;50.924;4.396;2023-08-31T02:51:12;14.65;;;7.82;;
19828;SDS011;10075;50.924;4.396;2023-08-31T02:53:39;8.90;;;6.45;;
19828;SDS011;10075;50.924;4.396;2023-08-31T02:56:06;10.38;;;6.45;;
19828;SDS011;10075;50.924;4.396;2023-08-31T02:58:33;12.05;;;5.95;;
19828;SDS011;10075;50.924;4.396;2023-08-31T03:01:07;13.20;;;5.85;;
19828;SDS011;10075;50.924;4.396;2023-08-31T03:03:36;9.85;;;6.65;;
19828;SDS011;10075;50.924;4.396;2023-08-31T03:06:05;8.43;;;6.10;;
19828;SDS011;10075;50.924;4.396;2023-08-31T03:08:32;10.75;;;6.07;;
19828;SDS011;10075;50.924;4.396;2023-08-31T03:10:59;11.45;;;5.53;;
19828;SDS011;10075;50.924;4.396;2023-08-31T03:13:26;11.70;;;5.93;;
19828;SDS011;10075;50.924;4.396;2023-08-31T03:15:53;13.18;;;5.70;;
19828;SDS011;10075;50.924;4.396;2023-08-31T03:18:21;8.35;;;5.65;;
19828;SDS011;10075;50.924;4.396;2023-08-31T03:20:48;9.07;;;5.80;;
19828;SDS011;10075;50.924;4.396;2023-08-31T03:23:17;11.77;;;6.63;;
19828;SDS011;10075;50.924;4.396;2023-08-31T03:25:44;9.23;;;5.85;;
19828;SDS011;10075;50.924;4.396;2023-08-31T03:28:10;9.82;;;5.88;;
19828;SDS011;10075;50.924;4.396;2023-08-31T03:30:38;10.27;;;5.57;;
19828;SDS011;10075;50.924;4.396;2023-08-31T03:33:05;10.00;;;6.30;;
19828;SDS011;10075;50.924;4.396;2023-08-31T03:35:32;9.38;;;5.72;;
19828;SDS011;10075;50.924;4.396;2023-08-31T03:37:59;10.85;;;6.55;;
19828;SDS011;10075;50.924;4.396;2023-08-31T03:40:28;9.85;;;6.15;;
19828;SDS011;10075;50.924;4.396;2023-08-31T03:42:55;8.32;;;5.57;;
19828;SDS011;10075;50.924;4.396;2023-08-31T03:45:22;8.32;;;5.68;;
19828;SDS011;10075;50.924;4.396;2023-08-31T03:47:49;9.93;;;6.18;;
19828;SDS011;10075;50.924;4.396;2023-08-31T03:50:15;10.48;;;5.93;;
19828;SDS011;10075;50.924;4.396;2023-08-31T03:52:42;8.88;;;5.82;;
19828;SDS011;10075;50.924;4.396;2023-08-31T03:55:09;9.07;;;5.95;;
19828;SDS011;10075;50.924;4.396;2023-08-31T03:57:38;8.43;;;5.35;;
19828;SDS011;10075;50.924;4.396;2023-08-31T04:00:05;8.57;;;5.70;;
19828;SDS011;10075;50.924;4.396;2023-08-31T04:02:34;7.97;;;5.70;;
19828;SDS011;10075;50.924;4.396;2023-08-31T04:05:03;10.18;;;5.53;;
19828;SDS011;10075;50.924;4.396;2023-08-31T04:07:30;9.60;;;6.10;;
19828;SDS011;10075;50.924;4.396;2023-08-31T04:09:58;7.55;;;5.90;;
19828;SDS011;10075;50.924;4.396;2023-08-31T04:12:25;10.13;;;5.68;;
19828;SDS011;10075;50.924;4.396;2023-08-31T04:14:55;10.45;;;5.50;;
19828;SDS011;10075;50.924;4.396;2023-08-31T04:17:22;8.45;;;5.85;;
19828;SDS011;10075;50.924;4.396;2023-08-31T04:19:50;8.55;;;5.95;;
19828;SDS011;10075;50.924;4.396;2023-08-31T04:22:17;11.98;;;6.05;;
19828;SDS011;10075;50.924;4.396;2023-08-31T04:24:44;10.23;;;6.37;;
19828;SDS011;10075;50.924;4.396;2023-08-31T04:27:11;11.07;;;6.95;;
19828;SDS011;10075;50.924;4.396;2023-08-31T04:29:38;11.40;;;6.47;;
19828;SDS011;10075;50.924;4.396;2023-08-31T04:32:06;9.87;;;6.03;;
19828;SDS011;10075;50.924;4.396;2023-08-31T04:34:33;10.68;;;5.82;;
19828;SDS011;10075;50.924;4.396;2023-08-31T04:37:00;7.20;;;5.57;;
19828;SDS011;10075;50.924;4.396;2023-08-31T04:39:27;10.53;;;6.13;;
19828;SDS011;10075;50.924;4.396;2023-08-31T04:41:54;10.48;;;5.82;;
19828;SDS011;10075;50.924;4.396;2023-08-31T04:44:21;7.57;;;6.10;;
19828;SDS011;10075;50.924;4.396;2023-08-31T04:46:48;11.82;;;6.43;;
19828;SDS011;10075;50.924;4.396;2023-08-31T04:49:17;9.52;;;6.13;;
19828;SDS011;10075;50.924;4.396;2023-08-31T04:51:44;10.73;;;5.97;;
19828;SDS011;10075;50.924;4.396;2023-08-31T04:54:11;8.63;;;5.60;;
19828;SDS011;10075;50.924;4.396;2023-08-31T04:56:38;11.10;;;6.10;;
19828;SDS011;10075;50.924;4.396;2023-08-31T04:59:05;11.38;;;6.40;;
19828;SDS011;10075;50.924;4.396;2023-08-31T05:01:32;10.85;;;6.57;;
19828;SDS011;10075;50.924;4.396;2023-08-31T05:03:59;10.67;;;6.90;;
19828;SDS011;10075;50.924;4.396;2023-08-31T05:06:27;12.13;;;6.32;;
19828;SDS011;10075;50.924;4.396;2023-08-31T05:08:54;10.32;;;6.03;;
19828;SDS011;10075;50.924;4.396;2023-08-31T05:11:21;10.30;;;5.63;;
19828;SDS011;10075;50.924;4.396;2023-08-31T05:13:47;12.65;;;6.72;;
19828;SDS011;10075;50.924;4.396;2023-08-31T05:16:14;11.82;;;6.78;;
19828;SDS011;10075;50.924;4.396;2023-08-31T05:18:41;10.88;;;6.78;;
19828;SDS011;10075;50.924;4.396;2023-08-31T05:21:08;8.60;;;6.77;;
19828;SDS011;10075;50.924;4.396;2023-08-31T05:23:37;10.27;;;6.83;;
19828;SDS011;10075;50.924;4.396;2023-08-31T05:26:04;9.53;;;6.30;;
19828;SDS011;10075;50.924;4.396;2023-08-31T05:28:31;12.15;;;6.20;;
19828;SDS011;10075;50.924;4.396;2023-08-31T05:31:00;11.48;;;6.47;;
19828;SDS011;10075;50.924;4.396;2023-08-31T05:33:28;13.98;;;6.43;;
19828;SDS011;10075;50.924;4.396;2023-08-31T05:36:00;12.53;;;6.03;;
19828;SDS011;10075;50.924;4.396;2023-08-31T05:38:28;9.25;;;6.03;;
19828;SDS011;10075;50.924;4.396;2023-08-31T05:41:04;11.80;;;5.65;;
19828;SDS011;10075;50.924;4.396;2023-08-31T05:43:32;11.30;;;5.50;;
19828;SDS011;10075;50.924;4.396;2023-08-31T05:45:59;10.88;;;5.82;;
19828;SDS011;10075;50.924;4.396;2023-08-31T05:48:26;8.13;;;5.13;;
19828;SDS011;10075;50.924;4.396;2023-08-31T05:50:53;12.85;;;6.43;;
19828;SDS011;10075;50.924;4.396;2023-08-31T05:53:20;13.93;;;6.50;;
19828;SDS011;10075;50.924;4.396;2023-08-31T05:55:47;11.07;;;5.70;;
19828;SDS011;10075;50.924;4.396;2023-08-31T05:58:16;12.73;;;5.68;;
19828;SDS011;10075;50.924;4.396;2023-08-31T06:00:43;11.85;;;6.00;;
19828;SDS011;10075;50.924;4.396;2023-08-31T06:03:10;10.27;;;5.47;;
19828;SDS011;10075;50.924;4.396;2023-08-31T06:05:37;11.07;;;5.68;;
19828;SDS011;10075;50.924;4.396;2023-08-31T06:08:04;11.05;;;5.18;;
19828;SDS011;10075;50.924;4.396;2023-08-31T06:10:31;11.32;;;5.13;;
19828;SDS011;10075;50.924;4.396;2023-08-31T06:12:58;13.25;;;5.88;;
19828;SDS011;10075;50.924;4.396;2023-08-31T06:15:27;12.10;;;5.15;;
19828;SDS011;10075;50.924;4.396;2023-08-31T06:17:54;13.15;;;5.80;;
19828;SDS011;10075;50.924;4.396;2023-08-31T06:20:21;11.18;;;6.00;;
19828;SDS011;10075;50.924;4.396;2023-08-31T06:22:48;11.00;;;5.22;;
19828;SDS011;10075;50.924;4.396;2023-08-31T06:25:15;9.82;;;4.90;;
19828;SDS011;10075;50.924;4.396;2023-08-31T06:27:43;10.90;;;4.82;;
19828;SDS011;10075;50.924;4.396;2023-08-31T06:30:11;9.98;;;5.40;;
19828;SDS011;10075;50.924;4.396;2023-08-31T06:32:42;12.32;;;5.15;;
19828;SDS011;10075;50.924;4.396;2023-08-31T06:35:10;15.47;;;4.83;;
19828;SDS011;10075;50.924;4.396;2023-08-31T06:37:37;14.55;;;5.43;;
19828;SDS011;10075;50.924;4.396;2023-08-31T06:40:05;12.68;;;5.43;;
19828;SDS011;10075;50.924;4.396;2023-08-31T06:42:34;9.65;;;5.03;;
19828;SDS011;10075;50.924;4.396;2023-08-31T06:45:01;14.45;;;5.78;;
19828;SDS011;10075;50.924;4.396;2023-08-31T06:47:28;12.27;;;5.07;;
19828;SDS011;10075;50.924;4.396;2023-08-31T06:49:56;11.85;;;4.65;;
19828;SDS011;10075;50.924;4.396;2023-08-31T06:52:23;15.25;;;4.95;;
19828;SDS011;10075;50.924;4.396;2023-08-31T06:54:51;10.13;;;4.47;;
19828;SDS011;10075;50.924;4.396;2023-08-31T06:57:20;13.45;;;4.95;;
19828;SDS011;10075;50.924;4.396;2023-08-31T06:59:48;11.50;;;4.70;;
19828;SDS011;10075;50.924;4.396;2023-08-31T07:02:15;14.73;;;5.55;;
19828;SDS011;10075;50.924;4.396;2023-08-31T07:04:44;11.13;;;5.00;;
19828;SDS011;10075;50.924;4.396;2023-08-31T07:07:12;14.15;;;4.97;;
19828;SDS011;10075;50.924;4.396;2023-08-31T07:09:39;11.75;;;4.75;;
19828;SDS011;10075;50.924;4.396;2023-08-31T07:12:06;15.23;;;5.35;;
19828;SDS011;10075;50.924;4.396;2023-08-31T07:14:33;13.85;;;5.00;;
19828;SDS011;10075;50.924;4.396;2023-08-31T07:17:00;10.70;;;4.68;;
19828;SDS011;10075;50.924;4.396;2023-08-31T07:19:27;14.88;;;5.40;;
19828;SDS011;10075;50.924;4.396;2023-08-31T07:21:54;13.10;;;4.93;;
19828;SDS011;10075;50.924;4.396;2023-08-31T07:24:23;16.02;;;5.03;;
19828;SDS011;10075;50.924;4.396;2023-08-31T07:26:50;11.52;;;5.10;;
19828;SDS011;10075;50.924;4.396;2023-08-31T07:29:17;8.77;;;4.75;;
19828;SDS011;10075;50.924;4.396;2023-08-31T07:31:44;11.88;;;4.90;;
19828;SDS011;10075;50.924;4.396;2023-08-31T07:34:11;12.63;;;5.20;;
19828;SDS011;10075;50.924;4.396;2023-08-31T07:36:38;9.10;;;4.70;;
19828;SDS011;10075;50.924;4.396;2023-08-31T07:39:05;15.88;;;5.03;;
19828;SDS011;10075;50.924;4.396;2023-08-31T07:41:34;14.30;;;5.25;;
19828;SDS011;10075;50.924;4.396;2023-08-31T07:44:00;11.35;;;4.82;;
19828;SDS011;10075;50.924;4.396;2023-08-31T07:46:28;13.52;;;4.97;;
19828;SDS011;10075;50.924;4.396;2023-08-31T07:48:55;10.88;;;4.88;;
19828;SDS011;10075;50.924;4.396;2023-08-31T07:51:22;12.32;;;5.13;;
19828;SDS011;10075;50.924;4.396;2023-08-31T07:53:51;10.57;;;4.78;;
19828;SDS011;10075;50.924;4.396;2023-08-31T07:56:17;17.20;;;4.97;;
19828;SDS011;10075;50.924;4.396;2023-08-31T07:58:46;18.48;;;5.47;;
19828;SDS011;10075;50.924;4.396;2023-08-31T08:01:13;12.68;;;5.03;;
19828;SDS011;10075;50.924;4.396;2023-08-31T08:03:40;15.90;;;4.72;;
19828;SDS011;10075;50.924;4.396;2023-08-31T08:06:07;14.27;;;5.18;;
19828;SDS011;10075;50.924;4.396;2023-08-31T08:08:34;16.05;;;4.88;;
19828;SDS011;10075;50.924;4.396;2023-08-31T08:11:01;12.88;;;4.72;;
19828;SDS011;10075;50.924;4.396;2023-08-31T08:13:30;7.80;;;4.35;;
19828;SDS011;10075;50.924;4.396;2023-08-31T08:15:58;14.52;;;4.72;;
19828;SDS011;10075;50.924;4.396;2023-08-31T08:18:25;10.93;;;5.45;;
19828;SDS011;10075;50.924;4.396;2023-08-31T08:20:52;13.63;;;5.10;;
19828;SDS011;10075;50.924;4.396;2023-08-31T08:23:19;11.18;;;4.43;;
19828;SDS011;10075;50.924;4.396;2023-08-31T08:25:47;8.90;;;4.60;;
19828;SDS011;10075;50.924;4.396;2023-08-31T08:28:14;11.48;;;5.22;;
19828;SDS011;10075;50.924;4.396;2023-08-31T08:30:40;15.23;;;4.93;;
19828;SDS011;10075;50.924;4.396;2023-08-31T08:33:09;12.15;;;4.82;;
19828;SDS011;10075;50.924;4.396;2023-08-31T08:35:37;11.13;;;4.70;;
19828;SDS011;10075;50.924;4.396;2023-08-31T08:38:04;10.40;;;4.43;;
19828;SDS011;10075;50.924;4.396;2023-08-31T08:40:31;12.90;;;5.03;;
19828;SDS011;10075;50.924;4.396;2023-08-31T08:42:58;12.43;;;5.00;;
19828;SDS011;10075;50.924;4.396;2023-08-31T08:45:29;12.73;;;4.82;;
19828;SDS011;10075;50.924;4.396;2023-08-31T08:48:04;11.43;;;4.13;;
19828;SDS011;10075;50.924;4.396;2023-08-31T08:50:34;12.35;;;4.10;;
19828;SDS011;10075;50.924;4.396;2023-08-31T08:53:03;8.77;;;4.40;;
19828;SDS011;10075;50.924;4.396;2023-08-31T08:55:30;9.60;;;3.55;;
19828;SDS011;10075;50.924;4.396;2023-08-31T08:57:58;10.85;;;4.28;;
19828;SDS011;10075;50.924;4.396;2023-08-31T09:00:26;9.82;;;4.07;;
19828;SDS011;10075;50.924;4.396;2023-08-31T09:02:53;13.45;;;4.72;;
19828;SDS011;10075;50.924;4.396;2023-08-31T09:05:21;14.70;;;4.20;;
19828;SDS011;10075;50.924;4.396;2023-08-31T09:08:03;12.32;;;3.80;;
19828;SDS011;10075;50.924;4.396;2023-08-31T09:10:35;14.27;;;4.97;;
19828;SDS011;10075;50.924;4.396;2023-08-31T09:13:06;10.52;;;4.30;;
19828;SDS011;10075;50.924;4.396;2023-08-31T09:15:41;9.70;;;4.20;;
19828;SDS011;10075;50.924;4.396;2023-08-31T09:18:22;11.93;;;4.53;;
19828;SDS011;10075;50.924;4.396;2023-08-31T09:20:50;13.48;;;4.40;;
19828;SDS011;10075;50.924;4.396;2023-08-31T09:23:19;10.80;;;4.20;;
19828;SDS011;10075;50.924;4.396;2023-08-31T09:25:47;12.73;;;4.10;;
19828;SDS011;10075;50.924;4.396;2023-08-31T09:28:15;8.65;;;4.28;;
19828;SDS011;10075;50.924;4.396;2023-08-31T09:30:45;9.98;;;3.80;;
19828;SDS011;10075;50.924;4.396;2023-08-31T09:33:13;9.50;;;3.88;;
19828;SDS011;10075;50.924;4.396;2023-08-31T09:35:46;10.40;;;4.22;;
19828;SDS011;10075;50.924;4.396;2023-08-31T09:38:15;11.80;;;4.43;;
19828;SDS011;10075;50.924;4.396;2023-08-31T09:40:44;11.52;;;4.20;;
19828;SDS011;10075;50.924;4.396;2023-08-31T09:43:11;7.03;;;4.20;;
19828;SDS011;10075;50.924;4.396;2023-08-31T09:45:38;9.40;;;3.72;;
19828;SDS011;10075;50.924;4.396;2023-08-31T09:48:06;10.13;;;4.57;;
19828;SDS011;10075;50.924;4.396;2023-08-31T09:50:33;8.77;;;4.20;;
19828;SDS011;10075;50.924;4.396;2023-08-31T09:53:01;7.45;;;3.60;;
19828;SDS011;10075;50.924;4.396;2023-08-31T09:55:29;8.50;;;3.60;;
19828;SDS011;10075;50.924;4.396;2023-08-31T09:57:59;8.82;;;3.72;;
19828;SDS011;10075;50.924;4.396;2023-08-31T10:00:28;10.27;;;3.72;;
19828;SDS011;10075;50.924;4.396;2023-08-31T10:02:58;9.63;;;4.13;;
19828;SDS011;10075;50.924;4.396;2023-08-31T10:05:28;6.13;;;3.40;;
19828;SDS011;10075;50.924;4.396;2023-08-31T10:07:56;8.65;;;3.50;;
19828;SDS011;10075;50.924;4.396;2023-08-31T10:10:23;9.40;;;3.35;;
19828;SDS011;10075;50.924;4.396;2023-08-31T10:12:51;6.18;;;3.38;;
19828;SDS011;10075;50.924;4.396;2023-08-31T10:15:20;9.10;;;3.38;;
19828;SDS011;10075;50.924;4.396;2023-08-31T10:17:47;8.02;;;3.70;;
19828;SDS011;10075;50.924;4.396;2023-08-31T10:20:15;7.70;;;3.47;;
19828;SDS011;10075;50.924;4.396;2023-08-31T10:22:43;6.70;;;3.10;;
19828;SDS011;10075;50.924;4.396;2023-08-31T10:25:11;10.65;;;3.42;;
19828;SDS011;10075;50.924;4.396;2023-08-31T10:27:38;6.97;;;2.95;;
19828;SDS011;10075;50.924;4.396;2023-08-31T10:30:13;10.95;;;3.08;;
19828;SDS011;10075;50.924;4.396;2023-08-31T10:32:42;6.25;;;3.10;;
19828;SDS011;10075;50.924;4.396;2023-08-31T10:35:09;11.55;;;3.03;;
19828;SDS011;10075;50.924;4.396;2023-08-31T10:37:36;5.63;;;2.95;;
19828;SDS011;10075;50.924;4.396;2023-08-31T10:40:06;8.80;;;2.80;;
19828;SDS011;10075;50.924;4.396;2023-08-31T10:42:42;8.60;;;2.70;;
19828;SDS011;10075;50.924;4.396;2023-08-31T10:45:10;6.72;;;2.70;;
19828;SDS011;10075;50.924;4.396;2023-08-31T10:47:37;8.02;;;2.72;;
19828;SDS011;10075;50.924;4.396;2023-08-31T10:50:18;8.45;;;2.50;;
19828;SDS011;10075;50.924;4.396;2023-08-31T10:52:46;10.98;;;2.60;;
19828;SDS011;10075;50.924;4.396;2023-08-31T10:55:14;7.57;;;2.70;;
19828;SDS011;10075;50.924;4.396;2023-08-31T10:57:41;7.75;;;2.65;;
19828;SDS011;10075;50.924;4.396;2023-08-31T11:00:08;9.90;;;2.42;;
19828;SDS011;10075;50.924;4.396;2023-08-31T11:02:37;7.03;;;2.45;;
19828;SDS011;10075;50.924;4.396;2023-08-31T11:05:08;9.10;;;2.42;;
19828;SDS011;10075;50.924;4.396;2023-08-31T11:07:38;7.85;;;2.45;;
19828;SDS011;10075;50.924;4.396;2023-08-31T11:10:07;4.63;;;1.95;;
19828;SDS011;10075;50.924;4.396;2023-08-31T11:12:39;7.60;;;2.38;;
19828;SDS011;10075;50.924;4.396;2023-08-31T11:15:07;6.78;;;2.17;;
19828;SDS011;10075;50.924;4.396;2023-08-31T11:17:37;5.00;;;2.40;;
19828;SDS011;10075;50.924;4.396;2023-08-31T11:20:05;8.05;;;2.22;;
19828;SDS011;10075;50.924;4.396;2023-08-31T11:22:34;6.03;;;2.10;;
19828;SDS011;10075;50.924;4.396;2023-08-31T11:25:06;6.82;;;2.28;;
19828;SDS011;10075;50.924;4.396;2023-08-31T11:27:35;20.52;;;3.88;;
19828;SDS011;10075;50.924;4.396;2023-08-31T11:30:02;9.27;;;2.20;;
19828;SDS011;10075;50.924;4.396;2023-08-31T11:32:30;7.88;;;2.28;;
19828;SDS011;10075;50.924;4.396;2023-08-31T11:34:57;6.10;;;2.20;;
19828;SDS011;10075;50.924;4.396;2023-08-31T11:37:26;4.72;;;2.17;;
19828;SDS011;10075;50.924;4.396;2023-08-31T11:39:54;7.75;;;2.05;;
19828;SDS011;10075;50.924;4.396;2023-08-31T11:42:21;9.40;;;2.70;;
19828;SDS011;10075;50.924;4.396;2023-08-31T11:44:49;9.80;;;2.45;;
19828;SDS011;10075;50.924;4.396;2023-08-31T11:47:18;8.48;;;2.13;;
19828;SDS011;10075;50.924;4.396;2023-08-31T11:49:46;6.40;;;2.17;;
19828;SDS011;10075;50.924;4.396;2023-08-31T11:52:14;5.00;;;2.05;;
19828;SDS011;10075;50.924;4.396;2023-08-31T11:54:42;5.97;;;1.83;;
19828;SDS011;10075;50.924;4.396;2023-08-31T11:57:12;3.95;;;1.88;;
19828;SDS011;10075;50.924;4.396;2023-08-31T11:59:40;6.20;;;1.90;;
19828;SDS011;10075;50.924;4.396;2023-08-31T12:02:07;8.32;;;1.60;;
19828;SDS011;10075;50.924;4.396;2023-08-31T12:04:41;6.45;;;2.00;;
19828;SDS011;10075;50.924;4.396;2023-08-31T12:07:09;8.13;;;1.70;;
19828;SDS011;10075;50.924;4.396;2023-08-31T12:09:36;7.47;;;2.10;;
19828;SDS011;10075;50.924;4.396;2023-08-31T12:12:04;4.47;;;1.50;;
19828;SDS011;10075;50.924;4.396;2023-08-31T12:14:32;5.75;;;1.83;;
19828;SDS011;10075;50.924;4.396;2023-08-31T12:17:00;5.22;;;1.70;;
19828;SDS011;10075;50.924;4.396;2023-08-31T12:19:28;9.30;;;4.88;;
19828;SDS011;10075;50.924;4.396;2023-08-31T12:21:56;5.72;;;2.70;;
19828;SDS011;10075;50.924;4.396;2023-08-31T12:24:23;9.68;;;1.90;;
19828;SDS011;10075;50.924;4.396;2023-08-31T12:26:51;6.45;;;2.35;;
19828;SDS011;10075;50.924;4.396;2023-08-31T12:29:20;4.40;;;1.52;;
19828;SDS011;10075;50.924;4.396;2023-08-31T12:31:48;5.55;;;2.03;;
19828;SDS011;10075;50.924;4.396;2023-08-31T12:34:16;7.30;;;2.05;;
19828;SDS011;10075;50.924;4.396;2023-08-31T12:36:43;5.72;;;1.70;;
19828;SDS011;10075;50.924;4.396;2023-08-31T12:39:10;7.20;;;2.03;;
19828;SDS011;10075;50.924;4.396;2023-08-31T12:41:37;9.73;;;2.20;;
19828;SDS011;10075;50.924;4.396;2023-08-31T12:44:04;8.15;;;2.25;;
19828;SDS011;10075;50.924;4.396;2023-08-31T12:46:32;6.13;;;1.90;;
19828;SDS011;10075;50.924;4.396;2023-08-31T12:49:00;6.80;;;1.98;;
19828;SDS011;10075;50.924;4.396;2023-08-31T12:51:28;6.75;;;2.08;;
19828;SDS011;10075;50.924;4.396;2023-08-31T12:53:55;5.68;;;2.03;;
19828;SDS011;10075;50.924;4.396;2023-08-31T12:56:23;7.85;;;2.00;;
19828;SDS011;10075;50.924;4.396;2023-08-31T12:58:50;3.85;;;1.90;;
19828;SDS011;10075;50.924;4.396;2023-08-31T13:01:18;4.55;;;1.83;;
19828;SDS011;10075;50.924;4.396;2023-08-31T13:03:46;4.30;;;1.92;;
19828;SDS011;10075;50.924;4.396;2023-08-31T13:06:15;7.68;;;1.95;;
19828;SDS011;10075;50.924;4.396;2023-08-31T13:08:42;6.00;;;2.45;;
19828;SDS011;10075;50.924;4.396;2023-08-31T13:11:10;6.28;;;1.92;;
19828;SDS011;10075;50.924;4.396;2023-08-31T13:13:38;4.43;;;1.83;;
19828;SDS011;10075;50.924;4.396;2023-08-31T13:16:05;5.07;;;1.90;;
19828;SDS011;10075;50.924;4.396;2023-08-31T13:18:31;4.28;;;1.88;;
19828;SDS011;10075;50.924;4.396;2023-08-31T13:21:00;5.40;;;1.67;;
19828;SDS011;10075;50.924;4.396;2023-08-31T13:23:29;6.40;;;2.00;;
19828;SDS011;10075;50.924;4.396;2023-08-31T13:25:55;5.22;;;2.15;;
19828;SDS011;10075;50.924;4.396;2023-08-31T13:28:23;5.10;;;1.83;;
19828;SDS011;10075;50.924;4.396;2023-08-31T13:30:50;6.32;;;1.80;;
19828;SDS011;10075;50.924;4.396;2023-08-31T13:33:21;6.38;;;1.90;;
19828;SDS011;10075;50.924;4.396;2023-08-31T13:35:48;4.85;;;2.00;;
19828;SDS011;10075;50.924;4.396;2023-08-31T13:38:15;4.35;;;2.00;;
19828;SDS011;10075;50.924;4.396;2023-08-31T13:40:44;6.03;;;1.55;;
19828;SDS011;10075;50.924;4.396;2023-08-31T13:43:11;8.70;;;2.28;;
19828;SDS011;10075;50.924;4.396;2023-08-31T13:45:38;4.97;;;1.50;;
19828;SDS011;10075;50.924;4.396;2023-08-31T13:48:05;5.82;;;1.50;;
19828;SDS011;10075;50.924;4.396;2023-08-31T13:50:32;6.50;;;1.90;;
19828;SDS011;10075;50.924;4.396;2023-08-31T13:52:59;7.28;;;1.75;;
19828;SDS011;10075;50.924;4.396;2023-08-31T13:55:26;4.85;;;1.60;;
19828;SDS011;10075;50.924;4.396;2023-08-31T13:57:55;5.25;;;1.85;;
19828;SDS011;10075;50.924;4.396;2023-08-31T14:00:22;4.47;;;1.73;;
19828;SDS011;10075;50.924;4.396;2023-08-31T14:02:49;6.38;;;1.80;;
19828;SDS011;10075;50.924;4.396;2023-08-31T14:05:16;6.65;;;1.73;;
19828;SDS011;10075;50.924;4.396;2023-08-31T14:07:43;5.63;;;2.17;;
19828;SDS011;10075;50.924;4.396;2023-08-31T14:10:10;9.45;;;2.25;;
19828;SDS011;10075;50.924;4.396;2023-08-31T14:12:37;10.30;;;2.00;;
19828;SDS011;10075;50.924;4.396;2023-08-31T14:15:06;8.45;;;2.17;;
19828;SDS011;10075;50.924;4.396;2023-08-31T14:17:33;5.22;;;1.73;;
19828;SDS011;10075;50.924;4.396;2023-08-31T14:20:00;7.47;;;2.25;;
19828;SDS011;10075;50.924;4.396;2023-08-31T14:22:31;10.13;;;2.10;;
19828;SDS011;10075;50.924;4.396;2023-08-31T14:24:58;7.30;;;2.22;;
19828;SDS011;10075;50.924;4.396;2023-08-31T14:27:25;7.88;;;2.40;;
19828;SDS011;10075;50.924;4.396;2023-08-31T14:29:53;7.38;;;2.28;;
19828;SDS011;10075;50.924;4.396;2023-08-31T14:32:21;4.90;;;2.10;;
19828;SDS011;10075;50.924;4.396;2023-08-31T14:34:48;9.52;;;2.22;;
19828;SDS011;10075;50.924;4.396;2023-08-31T14:37:15;5.90;;;2.38;;
19828;SDS011;10075;50.924;4.396;2023-08-31T14:39:42;11.20;;;3.00;;
19828;SDS011;10075;50.924;4.396;2023-08-31T14:42:09;12.00;;;2.55;;
19828;SDS011;10075;50.924;4.396;2023-08-31T14:44:36;8.63;;;2.50;;
19828;SDS011;10075;50.924;4.396;2023-08-31T14:47:03;6.57;;;2.72;;
19828;SDS011;10075;50.924;4.396;2023-08-31T14:49:32;7.30;;;2.40;;
19828;SDS011;10075;50.924;4.396;2023-08-31T14:51:59;9.07;;;2.40;;